sensor_id;sensor_type;location;lat;lon;timestamp;temperature;humidity
52799;DHT22;38667;42.872;74.622;2023-05-07T00:00:20;10.30;40.00
52799;DHT22;38667;42.872;74.622;2023-05-07T00:02:47;10.20;39.60
52799;DHT22;38667;42.872;74.622;2023-05-07T00:05:14;10.10;41.30
52799;DHT22;38667;42.872;74.622;2023-05-07T00:07:40;10.10;40.90
52799;DHT22;38667;42.872;74.622;2023-05-07T00:10:07;10.00;41.90
52799;DHT22;38667;42.872;74.622;2023-05-07T00:12:34;10.00;41.80
52799;DHT22;38667;42.872;74.622;2023-05-07T00:15:01;9.90;42.50
52799;DHT22;38667;42.872;74.622;2023-05-07T00:17:27;9.80;44.00
52799;DHT22;38667;42.872;74.622;2023-05-07T00:19:55;9.80;42.50
52799;DHT22;38667;42.872;74.622;2023-05-07T00:22:21;9.70;42.60
52799;DHT22;38667;42.872;74.622;2023-05-07T00:24:47;9.70;43.50
52799;DHT22;38667;42.872;74.622;2023-05-07T00:27:14;10.00;39.60
52799;DHT22;38667;42.872;74.622;2023-05-07T00:29:40;10.20;38.20
52799;DHT22;38667;42.872;74.622;2023-05-07T00:32:06;10.40;38.10
52799;DHT22;38667;42.872;74.622;2023-05-07T00:34:33;10.50;38.80
52799;DHT22;38667;42.872;74.622;2023-05-07T00:37:01;10.50;39.80
52799;DHT22;38667;42.872;74.622;2023-05-07T00:39:28;10.50;39.50
52799;DHT22;38667;42.872;74.622;2023-05-07T00:41:54;10.50;37.30
52799;DHT22;38667;42.872;74.622;2023-05-07T00:44:20;10.50;39.00
52799;DHT22;38667;42.872;74.622;2023-05-07T00:46:46;10.60;40.00
52799;DHT22;38667;42.872;74.622;2023-05-07T00:49:13;10.50;40.70
52799;DHT22;38667;42.872;74.622;2023-05-07T00:51:39;10.60;40.60
52799;DHT22;38667;42.872;74.622;2023-05-07T00:54:08;10.60;41.30
52799;DHT22;38667;42.872;74.622;2023-05-07T00:56:34;10.50;42.30
52799;DHT22;38667;42.872;74.622;2023-05-07T00:59:01;10.40;41.00
52799;DHT22;38667;42.872;74.622;2023-05-07T01:01:28;10.60;40.60
52799;DHT22;38667;42.872;74.622;2023-05-07T01:03:54;10.70;41.20
52799;DHT22;38667;42.872;74.622;2023-05-07T01:06:21;10.70;42.30
52799;DHT22;38667;42.872;74.622;2023-05-07T01:08:49;10.80;43.70
52799;DHT22;38667;42.872;74.622;2023-05-07T01:11:18;10.80;43.00
52799;DHT22;38667;42.872;74.622;2023-05-07T01:13:44;10.80;42.30
52799;DHT22;38667;42.872;74.622;2023-05-07T01:16:11;10.90;37.60
52799;DHT22;38667;42.872;74.622;2023-05-07T01:18:37;11.10;41.70
52799;DHT22;38667;42.872;74.622;2023-05-07T01:21:04;11.10;41.80
52799;DHT22;38667;42.872;74.622;2023-05-07T01:23:34;11.20;43.00
52799;DHT22;38667;42.872;74.622;2023-05-07T01:26:00;11.20;40.90
52799;DHT22;38667;42.872;74.622;2023-05-07T01:28:26;11.30;41.10
52799;DHT22;38667;42.872;74.622;2023-05-07T01:30:54;11.40;42.40
52799;DHT22;38667;42.872;74.622;2023-05-07T01:33:21;11.40;44.30
52799;DHT22;38667;42.872;74.622;2023-05-07T01:35:52;11.50;44.00
52799;DHT22;38667;42.872;74.622;2023-05-07T01:38:20;11.60;42.30
52799;DHT22;38667;42.872;74.622;2023-05-07T01:40:49;11.60;44.40
52799;DHT22;38667;42.872;74.622;2023-05-07T01:43:15;11.70;41.00
52799;DHT22;38667;42.872;74.622;2023-05-07T01:45:42;11.80;40.50
52799;DHT22;38667;42.872;74.622;2023-05-07T01:48:10;11.90;42.30
52799;DHT22;38667;42.872;74.622;2023-05-07T01:50:37;12.00;41.60
52799;DHT22;38667;42.872;74.622;2023-05-07T01:53:04;12.10;42.30
52799;DHT22;38667;42.872;74.622;2023-05-07T01:55:30;12.10;42.00
52799;DHT22;38667;42.872;74.622;2023-05-07T01:57:58;12.20;42.70
52799;DHT22;38667;42.872;74.622;2023-05-07T02:00:24;12.30;42.10
52799;DHT22;38667;42.872;74.622;2023-05-07T02:02:51;12.40;42.60
52799;DHT22;38667;42.872;74.622;2023-05-07T02:05:17;12.50;42.40
52799;DHT22;38667;42.872;74.622;2023-05-07T02:07:43;12.50;39.80
52799;DHT22;38667;42.872;74.622;2023-05-07T02:10:10;12.70;39.70
52799;DHT22;38667;42.872;74.622;2023-05-07T02:12:36;12.70;40.70
52799;DHT22;38667;42.872;74.622;2023-05-07T02:15:05;12.80;41.70
52799;DHT22;38667;42.872;74.622;2023-05-07T02:17:31;13.00;40.80
52799;DHT22;38667;42.872;74.622;2023-05-07T02:19:58;13.10;39.30
52799;DHT22;38667;42.872;74.622;2023-05-07T02:22:24;13.20;38.70
52799;DHT22;38667;42.872;74.622;2023-05-07T02:24:51;13.30;38.80
52799;DHT22;38667;42.872;74.622;2023-05-07T02:27:17;13.40;38.00
52799;DHT22;38667;42.872;74.622;2023-05-07T02:29:43;13.50;37.30
52799;DHT22;38667;42.872;74.622;2023-05-07T02:32:11;13.60;37.30
52799;DHT22;38667;42.872;74.622;2023-05-07T02:34:37;13.80;36.60
52799;DHT22;38667;42.872;74.622;2023-05-07T02:37:04;13.90;36.60
52799;DHT22;38667;42.872;74.622;2023-05-07T02:39:30;14.00;37.20
52799;DHT22;38667;42.872;74.622;2023-05-07T02:41:56;14.10;36.80
52799;DHT22;38667;42.872;74.622;2023-05-07T02:44:23;14.20;35.60
52799;DHT22;38667;42.872;74.622;2023-05-07T02:46:49;14.30;35.70
52799;DHT22;38667;42.872;74.622;2023-05-07T02:49:17;14.40;35.20
52799;DHT22;38667;42.872;74.622;2023-05-07T02:51:43;14.50;35.30
52799;DHT22;38667;42.872;74.622;2023-05-07T02:54:09;14.70;35.50
52799;DHT22;38667;42.872;74.622;2023-05-07T02:56:36;14.70;35.50
52799;DHT22;38667;42.872;74.622;2023-05-07T02:59:02;14.80;31.80
52799;DHT22;38667;42.872;74.622;2023-05-07T03:01:28;15.00;32.70
52799;DHT22;38667;42.872;74.622;2023-05-07T03:03:55;15.10;32.80
52799;DHT22;38667;42.872;74.622;2023-05-07T03:06:22;15.20;32.50
52799;DHT22;38667;42.872;74.622;2023-05-07T03:08:49;15.30;32.30
52799;DHT22;38667;42.872;74.622;2023-05-07T03:11:15;15.40;33.90
52799;DHT22;38667;42.872;74.622;2023-05-07T03:13:41;15.50;32.50
52799;DHT22;38667;42.872;74.622;2023-05-07T03:16:08;15.60;33.20
52799;DHT22;38667;42.872;74.622;2023-05-07T03:18:34;15.70;34.00
52799;DHT22;38667;42.872;74.622;2023-05-07T03:21:00;15.80;33.10
52799;DHT22;38667;42.872;74.622;2023-05-07T03:23:28;15.90;32.80
52799;DHT22;38667;42.872;74.622;2023-05-07T03:25:54;16.00;31.50
52799;DHT22;38667;42.872;74.622;2023-05-07T03:28:21;16.20;30.90
52799;DHT22;38667;42.872;74.622;2023-05-07T03:30:47;16.20;31.40
52799;DHT22;38667;42.872;74.622;2023-05-07T03:33:13;16.40;31.30
52799;DHT22;38667;42.872;74.622;2023-05-07T03:35:40;16.30;31.80
52799;DHT22;38667;42.872;74.622;2023-05-07T03:38:06;16.40;31.70
52799;DHT22;38667;42.872;74.622;2023-05-07T03:40:34;16.30;32.20
52799;DHT22;38667;42.872;74.622;2023-05-07T03:43:00;16.40;32.70
52799;DHT22;38667;42.872;74.622;2023-05-07T03:45:26;16.40;32.70
52799;DHT22;38667;42.872;74.622;2023-05-07T03:47:53;16.50;32.30
52799;DHT22;38667;42.872;74.622;2023-05-07T03:50:20;16.50;32.20
52799;DHT22;38667;42.872;74.622;2023-05-07T03:52:46;16.60;32.10
52799;DHT22;38667;42.872;74.622;2023-05-07T03:55:12;16.70;32.10
52799;DHT22;38667;42.872;74.622;2023-05-07T03:57:40;16.80;32.80
52799;DHT22;38667;42.872;74.622;2023-05-07T04:00:07;16.90;32.50
52799;DHT22;38667;42.872;74.622;2023-05-07T04:02:34;16.90;31.80
52799;DHT22;38667;42.872;74.622;2023-05-07T04:05:00;17.10;32.40
52799;DHT22;38667;42.872;74.622;2023-05-07T04:07:26;17.10;32.40
52799;DHT22;38667;42.872;74.622;2023-05-07T04:09:53;17.20;32.00
52799;DHT22;38667;42.872;74.622;2023-05-07T04:12:19;17.30;31.90
52799;DHT22;38667;42.872;74.622;2023-05-07T04:14:47;17.30;30.50
52799;DHT22;38667;42.872;74.622;2023-05-07T04:17:13;17.30;31.00
52799;DHT22;38667;42.872;74.622;2023-05-07T04:19:39;17.30;30.50
52799;DHT22;38667;42.872;74.622;2023-05-07T04:22:06;17.40;31.00
52799;DHT22;38667;42.872;74.622;2023-05-07T04:24:32;17.50;31.20
52799;DHT22;38667;42.872;74.622;2023-05-07T04:26:58;17.60;31.10
52799;DHT22;38667;42.872;74.622;2023-05-07T04:29:25;17.50;30.30
52799;DHT22;38667;42.872;74.622;2023-05-07T04:31:52;17.60;29.30
52799;DHT22;38667;42.872;74.622;2023-05-07T04:34:19;17.80;28.80
52799;DHT22;38667;42.872;74.622;2023-05-07T04:36:45;17.90;30.10
52799;DHT22;38667;42.872;74.622;2023-05-07T04:39:11;17.80;29.80
52799;DHT22;38667;42.872;74.622;2023-05-07T04:41:38;17.80;30.20
52799;DHT22;38667;42.872;74.622;2023-05-07T04:44:04;17.80;29.40
52799;DHT22;38667;42.872;74.622;2023-05-07T04:46:30;17.80;30.50
52799;DHT22;38667;42.872;74.622;2023-05-07T04:48:58;17.80;30.30
52799;DHT22;38667;42.872;74.622;2023-05-07T04:51:24;17.80;28.70
52799;DHT22;38667;42.872;74.622;2023-05-07T04:53:51;17.90;28.90
52799;DHT22;38667;42.872;74.622;2023-05-07T04:56:17;18.00;29.50
52799;DHT22;38667;42.872;74.622;2023-05-07T04:58:43;18.10;29.50
52799;DHT22;38667;42.872;74.622;2023-05-07T05:01:10;18.10;28.60
52799;DHT22;38667;42.872;74.622;2023-05-07T05:03:36;18.20;28.20
52799;DHT22;38667;42.872;74.622;2023-05-07T05:06:04;18.10;27.80
52799;DHT22;38667;42.872;74.622;2023-05-07T05:08:30;18.10;28.40
52799;DHT22;38667;42.872;74.622;2023-05-07T05:10:56;18.10;28.60
52799;DHT22;38667;42.872;74.622;2023-05-07T05:13:23;18.20;27.70
52799;DHT22;38667;42.872;74.622;2023-05-07T05:15:50;18.30;28.80
52799;DHT22;38667;42.872;74.622;2023-05-07T05:18:16;18.40;29.10
52799;DHT22;38667;42.872;74.622;2023-05-07T05:20:42;18.50;27.70
52799;DHT22;38667;42.872;74.622;2023-05-07T05:23:10;18.50;28.80
52799;DHT22;38667;42.872;74.622;2023-05-07T05:25:36;18.50;28.90
52799;DHT22;38667;42.872;74.622;2023-05-07T05:28:03;18.70;28.90
52799;DHT22;38667;42.872;74.622;2023-05-07T05:30:29;18.90;30.30
52799;DHT22;38667;42.872;74.622;2023-05-07T05:32:56;19.10;28.60
52799;DHT22;38667;42.872;74.622;2023-05-07T05:35:22;19.10;29.30
52799;DHT22;38667;42.872;74.622;2023-05-07T05:37:48;19.20;28.90
52799;DHT22;38667;42.872;74.622;2023-05-07T05:40:16;19.20;28.20
52799;DHT22;38667;42.872;74.622;2023-05-07T05:42:42;19.40;28.00
52799;DHT22;38667;42.872;74.622;2023-05-07T05:45:09;19.50;28.40
52799;DHT22;38667;42.872;74.622;2023-05-07T05:47:37;19.70;28.40
52799;DHT22;38667;42.872;74.622;2023-05-07T05:50:05;20.00;28.60
52799;DHT22;38667;42.872;74.622;2023-05-07T05:52:31;20.30;25.80
52799;DHT22;38667;42.872;74.622;2023-05-07T05:54:58;20.60;26.60
52799;DHT22;38667;42.872;74.622;2023-05-07T05:57:26;21.10;26.70
52799;DHT22;38667;42.872;74.622;2023-05-07T05:59:52;21.50;26.10
52799;DHT22;38667;42.872;74.622;2023-05-07T06:02:18;21.90;26.40
52799;DHT22;38667;42.872;74.622;2023-05-07T06:04:44;22.30;25.90
52799;DHT22;38667;42.872;74.622;2023-05-07T06:07:11;22.80;24.90
52799;DHT22;38667;42.872;74.622;2023-05-07T06:09:37;23.00;23.80
52799;DHT22;38667;42.872;74.622;2023-05-07T06:12:04;23.20;23.80
52799;DHT22;38667;42.872;74.622;2023-05-07T06:14:31;23.10;24.70
52799;DHT22;38667;42.872;74.622;2023-05-07T06:16:58;22.70;23.10
52799;DHT22;38667;42.872;74.622;2023-05-07T06:19:24;22.20;23.60
52799;DHT22;38667;42.872;74.622;2023-05-07T06:21:50;21.90;24.70
52799;DHT22;38667;42.872;74.622;2023-05-07T06:24:17;21.80;23.80
52799;DHT22;38667;42.872;74.622;2023-05-07T06:26:43;21.80;24.50
52799;DHT22;38667;42.872;74.622;2023-05-07T06:29:09;21.40;23.90
52799;DHT22;38667;42.872;74.622;2023-05-07T06:31:37;21.20;24.50
52799;DHT22;38667;42.872;74.622;2023-05-07T06:34:03;21.00;25.20
52799;DHT22;38667;42.872;74.622;2023-05-07T06:36:30;20.80;23.00
52799;DHT22;38667;42.872;74.622;2023-05-07T06:38:56;20.80;23.70
52799;DHT22;38667;42.872;74.622;2023-05-07T06:41:22;20.70;22.00
52799;DHT22;38667;42.872;74.622;2023-05-07T06:43:49;20.60;24.00
52799;DHT22;38667;42.872;74.622;2023-05-07T06:46:15;20.70;24.10
52799;DHT22;38667;42.872;74.622;2023-05-07T06:48:43;20.70;24.50
52799;DHT22;38667;42.872;74.622;2023-05-07T06:51:09;20.80;25.20
52799;DHT22;38667;42.872;74.622;2023-05-07T06:53:36;20.90;23.50
52799;DHT22;38667;42.872;74.622;2023-05-07T06:56:02;20.70;23.10
52799;DHT22;38667;42.872;74.622;2023-05-07T06:58:29;20.50;24.50
52799;DHT22;38667;42.872;74.622;2023-05-07T07:00:56;20.70;24.20
52799;DHT22;38667;42.872;74.622;2023-05-07T07:03:22;20.90;24.50
52799;DHT22;38667;42.872;74.622;2023-05-07T07:05:51;21.00;24.00
52799;DHT22;38667;42.872;74.622;2023-05-07T07:08:18;21.00;23.50
52799;DHT22;38667;42.872;74.622;2023-05-07T07:10:44;20.90;23.80
52799;DHT22;38667;42.872;74.622;2023-05-07T07:13:10;20.90;24.10
52799;DHT22;38667;42.872;74.622;2023-05-07T07:15:37;21.10;23.60
52799;DHT22;38667;42.872;74.622;2023-05-07T07:18:03;21.20;23.50
52799;DHT22;38667;42.872;74.622;2023-05-07T07:20:29;21.20;25.40
52799;DHT22;38667;42.872;74.622;2023-05-07T07:22:57;21.20;26.40
52799;DHT22;38667;42.872;74.622;2023-05-07T07:25:23;21.30;25.80
52799;DHT22;38667;42.872;74.622;2023-05-07T07:27:50;21.60;28.10
52799;DHT22;38667;42.872;74.622;2023-05-07T07:30:16;21.80;26.60
52799;DHT22;38667;42.872;74.622;2023-05-07T07:32:42;21.80;26.60
52799;DHT22;38667;42.872;74.622;2023-05-07T07:35:09;21.80;27.50
52799;DHT22;38667;42.872;74.622;2023-05-07T07:37:35;21.70;24.70
52799;DHT22;38667;42.872;74.622;2023-05-07T07:40:04;21.50;26.10
52799;DHT22;38667;42.872;74.622;2023-05-07T07:42:30;21.30;26.10
52799;DHT22;38667;42.872;74.622;2023-05-07T07:44:56;21.30;25.40
52799;DHT22;38667;42.872;74.622;2023-05-07T07:47:23;21.40;24.50
52799;DHT22;38667;42.872;74.622;2023-05-07T07:49:49;21.40;25.60
52799;DHT22;38667;42.872;74.622;2023-05-07T07:52:15;21.50;24.50
52799;DHT22;38667;42.872;74.622;2023-05-07T07:54:42;21.60;25.20
52799;DHT22;38667;42.872;74.622;2023-05-07T07:57:09;21.60;24.10
52799;DHT22;38667;42.872;74.622;2023-05-07T07:59:36;21.60;22.40
52799;DHT22;38667;42.872;74.622;2023-05-07T08:02:02;21.90;21.20
52799;DHT22;38667;42.872;74.622;2023-05-07T08:04:28;22.20;22.90
52799;DHT22;38667;42.872;74.622;2023-05-07T08:06:55;22.70;22.10
52799;DHT22;38667;42.872;74.622;2023-05-07T08:09:21;22.80;20.00
52799;DHT22;38667;42.872;74.622;2023-05-07T08:11:47;22.80;21.40
52799;DHT22;38667;42.872;74.622;2023-05-07T08:14:15;22.70;21.40
52799;DHT22;38667;42.872;74.622;2023-05-07T08:16:41;22.70;22.00
52799;DHT22;38667;42.872;74.622;2023-05-07T08:19:08;23.00;21.20
52799;DHT22;38667;42.872;74.622;2023-05-07T08:21:34;23.40;22.00
52799;DHT22;38667;42.872;74.622;2023-05-07T08:24:00;23.20;21.70
52799;DHT22;38667;42.872;74.622;2023-05-07T08:26:27;23.00;21.30
52799;DHT22;38667;42.872;74.622;2023-05-07T08:28:53;22.60;20.80
52799;DHT22;38667;42.872;74.622;2023-05-07T08:31:21;22.60;22.00
52799;DHT22;38667;42.872;74.622;2023-05-07T08:33:47;22.60;22.10
52799;DHT22;38667;42.872;74.622;2023-05-07T08:36:13;22.60;20.70
52799;DHT22;38667;42.872;74.622;2023-05-07T08:38:40;22.40;20.60
52799;DHT22;38667;42.872;74.622;2023-05-07T08:41:06;22.40;23.30
52799;DHT22;38667;42.872;74.622;2023-05-07T08:43:36;22.60;22.20
52799;DHT22;38667;42.872;74.622;2023-05-07T08:46:04;22.60;22.00
52799;DHT22;38667;42.872;74.622;2023-05-07T08:48:33;22.40;20.70
52799;DHT22;38667;42.872;74.622;2023-05-07T08:50:59;22.50;20.70
52799;DHT22;38667;42.872;74.622;2023-05-07T08:53:26;22.50;22.60
52799;DHT22;38667;42.872;74.622;2023-05-07T08:55:53;22.40;22.60
52799;DHT22;38667;42.872;74.622;2023-05-07T08:58:19;22.40;22.50
52799;DHT22;38667;42.872;74.622;2023-05-07T09:00:47;22.40;22.10
52799;DHT22;38667;42.872;74.622;2023-05-07T09:03:13;22.20;22.60
52799;DHT22;38667;42.872;74.622;2023-05-07T09:05:41;21.90;20.90
52799;DHT22;38667;42.872;74.622;2023-05-07T09:08:07;22.00;20.60
52799;DHT22;38667;42.872;74.622;2023-05-07T09:10:34;22.20;22.80
52799;DHT22;38667;42.872;74.622;2023-05-07T09:13:00;22.30;23.60
52799;DHT22;38667;42.872;74.622;2023-05-07T09:15:28;22.20;21.40
52799;DHT22;38667;42.872;74.622;2023-05-07T09:17:59;22.40;20.70
52799;DHT22;38667;42.872;74.622;2023-05-07T09:20:25;22.80;23.50
52799;DHT22;38667;42.872;74.622;2023-05-07T09:22:55;22.90;21.00
52799;DHT22;38667;42.872;74.622;2023-05-07T09:25:28;22.70;22.00
52799;DHT22;38667;42.872;74.622;2023-05-07T09:27:55;23.00;21.00
52799;DHT22;38667;42.872;74.622;2023-05-07T09:30:21;23.20;21.10
52799;DHT22;38667;42.872;74.622;2023-05-07T09:32:47;23.30;23.10
52799;DHT22;38667;42.872;74.622;2023-05-07T09:35:17;23.30;22.80
52799;DHT22;38667;42.872;74.622;2023-05-07T09:37:43;23.50;20.80
52799;DHT22;38667;42.872;74.622;2023-05-07T09:40:20;23.80;20.80
52799;DHT22;38667;42.872;74.622;2023-05-07T09:42:47;23.70;20.60
52799;DHT22;38667;42.872;74.622;2023-05-07T09:45:14;24.00;19.80
52799;DHT22;38667;42.872;74.622;2023-05-07T09:47:41;24.00;19.70
52799;DHT22;38667;42.872;74.622;2023-05-07T09:50:09;23.60;20.80
52799;DHT22;38667;42.872;74.622;2023-05-07T09:52:36;23.40;20.10
52799;DHT22;38667;42.872;74.622;2023-05-07T09:55:03;23.40;20.50
52799;DHT22;38667;42.872;74.622;2023-05-07T09:57:31;22.90;21.80
52799;DHT22;38667;42.872;74.622;2023-05-07T09:59:58;22.40;20.90
52799;DHT22;38667;42.872;74.622;2023-05-07T10:02:27;22.00;22.30
52799;DHT22;38667;42.872;74.622;2023-05-07T10:04:55;22.00;23.30
52799;DHT22;38667;42.872;74.622;2023-05-07T10:07:22;22.20;22.30
52799;DHT22;38667;42.872;74.622;2023-05-07T10:09:49;22.20;22.20
52799;DHT22;38667;42.872;74.622;2023-05-07T10:12:17;22.20;22.60
52799;DHT22;38667;42.872;74.622;2023-05-07T10:14:45;22.20;21.90
52799;DHT22;38667;42.872;74.622;2023-05-07T10:17:12;22.10;22.30
52799;DHT22;38667;42.872;74.622;2023-05-07T10:19:40;21.90;20.20
52799;DHT22;38667;42.872;74.622;2023-05-07T10:22:06;21.60;21.10
52799;DHT22;38667;42.872;74.622;2023-05-07T10:24:35;21.60;20.00
52799;DHT22;38667;42.872;74.622;2023-05-07T10:27:04;21.60;20.70
52799;DHT22;38667;42.872;74.622;2023-05-07T10:29:37;21.70;21.30
52799;DHT22;38667;42.872;74.622;2023-05-07T10:32:19;21.80;21.30
52799;DHT22;38667;42.872;74.622;2023-05-07T10:34:56;21.80;20.00
52799;DHT22;38667;42.872;74.622;2023-05-07T10:37:24;21.80;22.20
52799;DHT22;38667;42.872;74.622;2023-05-07T10:39:52;21.80;20.90
52799;DHT22;38667;42.872;74.622;2023-05-07T10:42:18;21.70;21.40
52799;DHT22;38667;42.872;74.622;2023-05-07T10:44:44;21.60;22.70
52799;DHT22;38667;42.872;74.622;2023-05-07T10:47:14;21.70;23.90
52799;DHT22;38667;42.872;74.622;2023-05-07T10:50:20;21.70;21.70
52799;DHT22;38667;42.872;74.622;2023-05-07T10:56:24;21.40;22.00
52799;DHT22;38667;42.872;74.622;2023-05-07T10:58:51;21.40;22.50
52799;DHT22;38667;42.872;74.622;2023-05-07T11:01:50;21.40;21.10
52799;DHT22;38667;42.872;74.622;2023-05-07T11:04:18;21.40;21.30
52799;DHT22;38667;42.872;74.622;2023-05-07T11:07:26;21.40;20.50
52799;DHT22;38667;42.872;74.622;2023-05-07T11:10:00;21.50;20.20
52799;DHT22;38667;42.872;74.622;2023-05-07T11:12:50;21.30;22.30
52799;DHT22;38667;42.872;74.622;2023-05-07T11:15:35;21.40;20.80
52799;DHT22;38667;42.872;74.622;2023-05-07T11:18:02;21.50;20.80
52799;DHT22;38667;42.872;74.622;2023-05-07T11:20:48;21.50;21.70
52799;DHT22;38667;42.872;74.622;2023-05-07T11:26:17;21.30;20.60
52799;DHT22;38667;42.872;74.622;2023-05-07T11:28:43;21.30;20.00
52799;DHT22;38667;42.872;74.622;2023-05-07T11:31:10;21.20;20.50
52799;DHT22;38667;42.872;74.622;2023-05-07T11:33:37;21.20;19.50
52799;DHT22;38667;42.872;74.622;2023-05-07T11:36:08;21.20;20.50
52799;DHT22;38667;42.872;74.622;2023-05-07T11:38:36;21.20;20.40
52799;DHT22;38667;42.872;74.622;2023-05-07T11:41:02;21.30;19.90
52799;DHT22;38667;42.872;74.622;2023-05-07T11:43:29;21.30;20.30
52799;DHT22;38667;42.872;74.622;2023-05-07T11:45:58;21.40;20.30
52799;DHT22;38667;42.872;74.622;2023-05-07T11:48:31;21.40;20.70
52799;DHT22;38667;42.872;74.622;2023-05-07T11:51:01;21.30;20.50
52799;DHT22;38667;42.872;74.622;2023-05-07T11:53:36;21.20;19.20
52799;DHT22;38667;42.872;74.622;2023-05-07T11:56:06;21.10;19.50
52799;DHT22;38667;42.872;74.622;2023-05-07T11:58:33;21.10;19.50
52799;DHT22;38667;42.872;74.622;2023-05-07T12:01:00;21.20;20.10
52799;DHT22;38667;42.872;74.622;2023-05-07T12:03:26;21.20;19.50
52799;DHT22;38667;42.872;74.622;2023-05-07T12:05:52;21.20;19.40
52799;DHT22;38667;42.872;74.622;2023-05-07T12:08:19;21.20;19.60
52799;DHT22;38667;42.872;74.622;2023-05-07T12:10:49;21.00;19.00
52799;DHT22;38667;42.872;74.622;2023-05-07T12:13:16;20.90;19.60
52799;DHT22;38667;42.872;74.622;2023-05-07T12:15:42;20.80;18.60
52799;DHT22;38667;42.872;74.622;2023-05-07T12:18:09;20.70;19.10
52799;DHT22;38667;42.872;74.622;2023-05-07T12:20:36;20.80;19.90
52799;DHT22;38667;42.872;74.622;2023-05-07T12:23:03;20.70;20.20
52799;DHT22;38667;42.872;74.622;2023-05-07T12:25:30;20.70;19.60
52799;DHT22;38667;42.872;74.622;2023-05-07T12:28:00;20.70;19.60
52799;DHT22;38667;42.872;74.622;2023-05-07T12:30:27;20.60;19.50
52799;DHT22;38667;42.872;74.622;2023-05-07T12:32:53;20.60;19.70
52799;DHT22;38667;42.872;74.622;2023-05-07T12:35:27;20.60;20.10
52799;DHT22;38667;42.872;74.622;2023-05-07T12:37:55;20.50;18.90
52799;DHT22;38667;42.872;74.622;2023-05-07T12:40:22;20.40;19.00
52799;DHT22;38667;42.872;74.622;2023-05-07T12:42:53;20.40;19.30
52799;DHT22;38667;42.872;74.622;2023-05-07T12:45:21;20.30;19.70
52799;DHT22;38667;42.872;74.622;2023-05-07T12:47:47;20.30;20.00
52799;DHT22;38667;42.872;74.622;2023-05-07T12:50:14;20.30;19.60
52799;DHT22;38667;42.872;74.622;2023-05-07T12:52:40;20.20;20.00
52799;DHT22;38667;42.872;74.622;2023-05-07T12:55:07;20.20;19.80
52799;DHT22;38667;42.872;74.622;2023-05-07T12:57:38;20.20;19.80
52799;DHT22;38667;42.872;74.622;2023-05-07T13:00:06;20.10;19.80
52799;DHT22;38667;42.872;74.622;2023-05-07T13:02:37;20.10;19.70
52799;DHT22;38667;42.872;74.622;2023-05-07T13:05:03;20.10;19.80
52799;DHT22;38667;42.872;74.622;2023-05-07T13:07:30;20.10;19.80
52799;DHT22;38667;42.872;74.622;2023-05-07T13:09:56;20.00;20.40
52799;DHT22;38667;42.872;74.622;2023-05-07T13:12:22;20.00;20.90
52799;DHT22;38667;42.872;74.622;2023-05-07T13:14:49;20.00;20.20
52799;DHT22;38667;42.872;74.622;2023-05-07T13:17:15;19.90;20.50
52799;DHT22;38667;42.872;74.622;2023-05-07T13:19:43;19.90;19.90
52799;DHT22;38667;42.872;74.622;2023-05-07T13:22:09;19.90;20.50
52799;DHT22;38667;42.872;74.622;2023-05-07T13:24:35;19.90;20.20
52799;DHT22;38667;42.872;74.622;2023-05-07T13:27:02;19.90;19.70
52799;DHT22;38667;42.872;74.622;2023-05-07T13:29:28;19.90;20.10
52799;DHT22;38667;42.872;74.622;2023-05-07T13:31:54;19.80;20.70
52799;DHT22;38667;42.872;74.622;2023-05-07T13:34:21;19.70;20.70
52799;DHT22;38667;42.872;74.622;2023-05-07T13:36:49;19.70;21.90
52799;DHT22;38667;42.872;74.622;2023-05-07T13:39:15;19.60;22.20
52799;DHT22;38667;42.872;74.622;2023-05-07T13:41:41;19.50;23.20
52799;DHT22;38667;42.872;74.622;2023-05-07T13:44:08;19.40;21.90
52799;DHT22;38667;42.872;74.622;2023-05-07T13:46:34;19.30;21.90
52799;DHT22;38667;42.872;74.622;2023-05-07T13:49:00;19.20;22.50
52799;DHT22;38667;42.872;74.622;2023-05-07T13:51:27;19.10;22.20
52799;DHT22;38667;42.872;74.622;2023-05-07T13:53:54;19.10;23.00
52799;DHT22;38667;42.872;74.622;2023-05-07T13:56:21;19.00;22.90
52799;DHT22;38667;42.872;74.622;2023-05-07T13:58:47;19.00;24.20
52799;DHT22;38667;42.872;74.622;2023-05-07T14:01:13;18.90;24.20
52799;DHT22;38667;42.872;74.622;2023-05-07T14:03:40;18.90;23.60
52799;DHT22;38667;42.872;74.622;2023-05-07T14:06:06;18.80;24.40
52799;DHT22;38667;42.872;74.622;2023-05-07T14:08:32;18.70;24.90
52799;DHT22;38667;42.872;74.622;2023-05-07T14:11:00;18.60;24.50
52799;DHT22;38667;42.872;74.622;2023-05-07T14:13:26;18.60;23.90
52799;DHT22;38667;42.872;74.622;2023-05-07T14:15:53;18.50;24.10
52799;DHT22;38667;42.872;74.622;2023-05-07T14:18:19;18.50;23.90
52799;DHT22;38667;42.872;74.622;2023-05-07T14:20:45;18.40;24.90
52799;DHT22;38667;42.872;74.622;2023-05-07T14:23:12;18.30;26.20
52799;DHT22;38667;42.872;74.622;2023-05-07T14:25:38;18.20;25.60
52799;DHT22;38667;42.872;74.622;2023-05-07T14:28:06;18.20;25.30
52799;DHT22;38667;42.872;74.622;2023-05-07T14:30:33;18.10;24.90
52799;DHT22;38667;42.872;74.622;2023-05-07T14:32:59;18.10;24.90
52799;DHT22;38667;42.872;74.622;2023-05-07T14:35:25;18.00;26.00
52799;DHT22;38667;42.872;74.622;2023-05-07T14:37:52;17.90;26.60
52799;DHT22;38667;42.872;74.622;2023-05-07T14:40:18;17.90;25.40
52799;DHT22;38667;42.872;74.622;2023-05-07T14:42:44;17.90;26.50
52799;DHT22;38667;42.872;74.622;2023-05-07T14:45:12;17.80;27.50
52799;DHT22;38667;42.872;74.622;2023-05-07T14:47:39;17.70;26.20
52799;DHT22;38667;42.872;74.622;2023-05-07T14:50:05;17.60;26.30
52799;DHT22;38667;42.872;74.622;2023-05-07T14:52:32;17.60;26.00
52799;DHT22;38667;42.872;74.622;2023-05-07T14:54:58;17.60;27.40
52799;DHT22;38667;42.872;74.622;2023-05-07T14:57:24;17.50;29.50
52799;DHT22;38667;42.872;74.622;2023-05-07T14:59:51;17.50;29.20
52799;DHT22;38667;42.872;74.622;2023-05-07T15:02:19;17.50;28.60
52799;DHT22;38667;42.872;74.622;2023-05-07T15:04:45;17.40;32.10
52799;DHT22;38667;42.872;74.622;2023-05-07T15:07:12;17.30;29.60
52799;DHT22;38667;42.872;74.622;2023-05-07T15:09:38;17.30;28.90
52799;DHT22;38667;42.872;74.622;2023-05-07T15:12:04;17.30;28.50
52799;DHT22;38667;42.872;74.622;2023-05-07T15:14:31;17.20;30.50
52799;DHT22;38667;42.872;74.622;2023-05-07T15:16:57;17.10;28.20
52799;DHT22;38667;42.872;74.622;2023-05-07T15:19:25;17.20;28.00
52799;DHT22;38667;42.872;74.622;2023-05-07T15:21:51;17.10;28.90